Casper, WY

4:33 AM MDT on August 20, 2014 (GMT -0600)
RAWS CASPER MOUNTAIN WY US | Change Station
CLOSE
Current Station
Personal Weather Station
Location: Casper, WY
Elevation: 7740 ft
Nearby Weather Stations

Elev 7740 ft 42.71 °N, 106.35 °W | Updated 41 minutes ago

Partly Cloudy
Partly Cloudy
56 °F
Feels Like 56 °F
N
14
Wind Variable Wind from SSW
Gusts 29.0 mph

Today
High -- | Low -- °F
--% Chance of Precip.
Yesterday
High -- | Low -- °F
Precip. -- in
6:17 AM 7:59 PM
Waning Crescent, 22% visible
Pressure 29.64 in
Visibility 10.0 miles
Clouds Few 10000 ft
Dew Point 48 °F
Humidity 75%
Rainfall 0.00 in
Snow Depth 0 in , 0 in
UV 0 out of 12
Pollen 9.10 out of 12
Air Quality Not available.
Flu Activity Not available.
METAR KCPR 200953Z AUTO 21016KT 10SM FEW100 18/10 A2987 RMK AO2 SLP037 T01830100

More Conditions Fewer Conditions

Pressure 29.64 in
Visibility 10.0 miles
Clouds Few 10000 ft
Dew Point 48 °F
Humidity 75%
Rainfall 0.00 in
Snow Depth 0 in , 0 in
UV 0 out of 12
Pollen 9.10 out of 12
Air Quality Not available.
Flu Activity Not available.
METAR KCPR 200953Z AUTO 21016KT 10SM FEW100 18/10 A2987 RMK AO2 SLP037 T01830100

More Conditions Fewer Conditions

10-Day Weather Forecast

Almanac

Astronomy

Aug. 20, 2014 Rise Set
Actual Time 6:17 AM MDT 7:59 PM MDT
Civil Twilight 5:47 AM MDT 8:29 PM MDT
Nautical Twilight 5:10 AM MDT 9:05 PM MDT
Astronomical Twilight 4:31 AM MDT 9:44 PM MDT
Moon 1:57 AM MDT 4:48 PM MDT
Length of Visible Light 14h 42m
Length of Day
13h 42m
Tomorrow will be 2m 38s shorter.
Waning Crescent, 22% of the Moon is Illuminated
Today
Waning Crescent
Aug 25
New
Sep 2
First Quarter
Sep 8
Full
Sep 15
Last Quarter

Today's Extremes

State Highs State Lows

Community

WunderPhotos

Upload Photos

1,745,604 photos uploaded!

Nearby

Snow Depth

Station Depth Elevation
Casper Mountain 0 in 7850 ft
Reno Hill 0 in 8500 ft
Sand Lake 0 in 10050 ft
Brooklyn Lake 0 in 10220 ft
South Brush Creek 0 in 8440 ft

Earthquake Activity

City Distance Mag. Time & Date
No recent earthquake activity has been reported nearby.
Minimum magnitude displayed is 2.5.

Coastal Water Temperatures

Place Temperature
No Stations Reporting

Nearby Weather Stations